Time;durP1;ratioP1;P1;durP2;ratioP2;P2;SDS_P1;SDS_P2;PMS_P1;PMS_P2;Temp;Humidity;BMP_temperature;BMP_pressure;BME280_temperature;BME280_humidity;BME280_pressure;Samples;Min_cycle;Max_cycle;Signal;HPM_P1;HPM_P2
2021/03/05 00:00:53;;;;;;;35.90;19.93;;;;;;;;;;5035441;28;20224;-89
2021/03/05 00:03:20;;;;;;;32.00;19.87;;;;;;;;;;5035391;28;20208;-89
2021/03/05 00:05:45;;;;;;;36.10;19.47;;;;;;;;;;5035654;28;20184;-88
2021/03/05 00:08:12;;;;;;;39.53;20.60;;;;;;;;;;5036018;28;20252;-89
2021/03/05 00:10:38;;;;;;;30.63;18.40;;;;;;;;;;5035971;28;20176;-89
2021/03/05 00:13:04;;;;;;;36.93;21.77;;;;;;;;;;5035568;28;20172;-89
2021/03/05 00:15:31;;;;;;;51.40;28.90;;;;;;;;;;5035441;28;20272;-89
2021/03/05 00:17:56;;;;;;;36.47;21.37;;;;;;;;;;5035512;28;20185;-89
2021/03/05 00:20:23;;;;;;;57.83;27.23;;;;;;;;;;5035668;28;20204;-89
2021/03/05 00:22:48;;;;;;;56.33;26.00;;;;;;;;;;5035378;28;20179;-89
2021/03/05 00:25:14;;;;;;;38.40;24.03;;;;;;;;;;5034449;28;20169;-89
2021/03/05 00:27:39;;;;;;;35.57;24.33;;;;;;;;;;5034877;28;20280;-89
2021/03/05 00:30:06;;;;;;;51.40;26.00;;;;;;;;;;5035535;28;20172;-89
2021/03/05 00:32:31;;;;;;;56.93;26.07;;;;;;;;;;5035416;28;20176;-89
2021/03/05 00:34:57;;;;;;;42.17;22.17;;;;;;;;;;5035116;28;20165;-89
2021/03/05 00:37:22;;;;;;;53.83;24.80;;;;;;;;;;5034793;28;20698;-89
2021/03/05 00:39:47;;;;;;;48.93;23.90;;;;;;;;;;5034866;28;20196;-89
2021/03/05 00:42:13;;;;;;;47.10;23.70;;;;;;;;;;5034863;28;20587;-89
2021/03/05 00:44:38;;;;;;;43.30;22.03;;;;;;;;;;5034999;28;20176;-90
2021/03/05 00:47:04;;;;;;;41.53;21.27;;;;;;;;;;5033948;28;20177;-89
2021/03/05 00:49:29;;;;;;;54.83;23.97;;;;;;;;;;5035129;28;20168;-89
2021/03/05 00:51:54;;;;;;;40.23;22.10;;;;;;;;;;5034558;28;20508;-89
2021/03/05 00:54:20;;;;;;;39.07;21.73;;;;;;;;;;5034819;28;20168;-89
2021/03/05 00:56:46;;;;;;;40.27;22.10;;;;;;;;;;5034876;28;20180;-89
2021/03/05 00:59:11;;;;;;;34.63;20.67;;;;;;;;;;5034359;28;20567;-88
2021/03/05 01:01:36;;;;;;;41.47;21.47;;;;;;;;;;5033105;28;20233;-88
2021/03/05 01:04:01;;;;;;;38.57;22.13;;;;;;;;;;5034625;28;20512;-88
2021/03/05 01:06:27;;;;;;;38.60;21.37;;;;;;;;;;5034341;28;20222;-88
2021/03/05 01:08:52;;;;;;;38.73;22.03;;;;;;;;;;5034657;28;20180;-88
2021/03/05 01:11:17;;;;;;;39.87;21.93;;;;;;;;;;5034573;28;20168;-88
2021/03/05 01:13:43;;;;;;;41.23;22.70;;;;;;;;;;5034452;28;20175;-88
2021/03/05 01:16:09;;;;;;;36.70;21.47;;;;;;;;;;5034468;28;20175;-88
2021/03/05 01:18:34;;;;;;;35.43;21.23;;;;;;;;;;5034096;28;20197;-88
2021/03/05 01:21:00;;;;;;;35.00;21.10;;;;;;;;;;5034322;28;20680;-88
2021/03/05 01:23:25;;;;;;;40.17;23.60;;;;;;;;;;5033253;28;20310;-88
2021/03/05 01:25:51;;;;;;;40.67;24.37;;;;;;;;;;5034310;28;20181;-89
2021/03/05 01:28:16;;;;;;;43.40;22.43;;;;;;;;;;5034021;28;20161;-88
2021/03/05 01:30:41;;;;;;;40.10;22.07;;;;;;;;;;5033953;28;20169;-88
2021/03/05 01:33:07;;;;;;;39.43;21.93;;;;;;;;;;5034165;28;20226;-88
2021/03/05 01:35:32;;;;;;;34.97;19.37;;;;;;;;;;5032593;28;20173;-89
2021/03/05 01:37:58;;;;;;;39.03;22.30;;;;;;;;;;5033745;28;20271;-89
2021/03/05 01:40:40;;;;;;;34.53;20.00;;;;;;;;;;5032724;28;20227;-88
2021/03/05 01:43:10;;;;;;;34.27;20.37;;;;;;;;;;5034242;28;20168;-88
2021/03/05 01:45:37;;;;;;;34.97;19.93;;;;;;;;;;5034106;28;20157;-89
2021/03/05 01:48:08;;;;;;;42.23;21.77;;;;;;;;;;5033801;28;20165;-89
2021/03/05 01:50:34;;;;;;;39.33;21.90;;;;;;;;;;5033905;28;20353;-89
2021/03/05 01:53:04;;;;;;;34.40;20.13;;;;;;;;;;5033960;28;20169;-89
2021/03/05 01:55:29;;;;;;;34.50;19.80;;;;;;;;;;5034212;28;20172;-89
2021/03/05 01:57:55;;;;;;;40.37;23.30;;;;;;;;;;5033882;28;20164;-89
2021/03/05 02:00:31;;;;;;;39.57;21.53;;;;;;;;;;5033287;28;20240;-89
2021/03/05 02:02:56;;;;;;;40.57;25.47;;;;;;;;;;5034667;28;20164;-89
2021/03/05 02:05:22;;;;;;;36.43;20.47;;;;;;;;;;5033506;28;20268;-89
2021/03/05 02:07:47;;;;;;;35.33;20.10;;;;;;;;;;5034294;28;20168;-88
2021/03/05 02:10:13;;;;;;;27.67;16.90;;;;;;;;;;5033753;28;20179;-87
2021/03/05 02:12:38;;;;;;;25.80;14.50;;;;;;;;;;5033514;28;20523;-88
2021/03/05 02:15:04;;;;;;;24.53;15.63;;;;;;;;;;5034037;28;20176;-88
2021/03/05 02:17:33;;;;;;;25.83;16.07;;;;;;;;;;5034017;28;20204;-88
2021/03/05 02:20:17;;;;;;;21.17;12.63;;;;;;;;;;5032335;28;20651;-89
2021/03/05 02:22:49;;;;;;;25.37;12.77;;;;;;;;;;5033887;28;20730;-89
2021/03/05 02:25:21;;;;;;;20.33;12.03;;;;;;;;;;5034495;28;20618;-89
2021/03/05 02:28:05;;;;;;;20.07;12.23;;;;;;;;;;5033315;28;20200;-89
2021/03/05 02:30:49;;;;;;;15.93;9.53;;;;;;;;;;5033819;28;20176;-88
2021/03/05 02:33:18;;;;;;;21.17;12.07;;;;;;;;;;5033614;28;20268;-88
2021/03/05 02:35:45;;;;;;;18.23;11.80;;;;;;;;;;5033128;28;20570;-87
2021/03/05 02:38:11;;;;;;;20.00;11.25;;;;;;;;;;5033176;28;20243;-88
2021/03/05 02:40:39;;;;;;;18.60;12.07;;;;;;;;;;5033726;28;20191;-88
2021/03/05 02:43:05;;;;;;;15.63;9.93;;;;;;;;;;5033646;28;20211;-88
2021/03/05 02:45:33;;;;;;;18.03;10.50;;;;;;;;;;5033233;28;20319;-88
2021/03/05 02:48:05;;;;;;;15.03;8.63;;;;;;;;;;5034141;28;20173;-87
2021/03/05 02:50:31;;;;;;;10.80;7.07;;;;;;;;;;5037668;28;20232;-88
2021/03/05 02:53:00;;;;;;;13.90;9.33;;;;;;;;;;5036827;28;20295;-88
2021/03/05 02:55:26;;;;;;;14.20;8.73;;;;;;;;;;5036679;28;20176;-88
2021/03/05 02:57:55;;;;;;;12.40;8.47;;;;;;;;;;5037293;28;20181;-88
2021/03/05 03:00:21;;;;;;;13.23;7.47;;;;;;;;;;5036428;28;20558;-88
2021/03/05 03:02:47;;;;;;;10.87;7.90;;;;;;;;;;5037853;28;20631;-88
2021/03/05 03:05:13;;;;;;;13.40;8.90;;;;;;;;;;5037156;28;20177;-87
2021/03/05 03:07:40;;;;;;;11.50;7.57;;;;;;;;;;5037042;28;20173;-87
2021/03/05 03:10:06;;;;;;;11.20;7.27;;;;;;;;;;5036855;28;20169;-88
2021/03/05 03:12:33;;;;;;;12.83;7.67;;;;;;;;;;5052136;28;20180;-88
2021/03/05 03:14:58;;;;;;;12.33;7.80;;;;;;;;;;5037121;28;20200;-88
2021/03/05 03:17:26;;;;;;;11.93;8.27;;;;;;;;;;5036697;28;20586;-88
2021/03/05 03:19:52;;;;;;;12.43;8.10;;;;;;;;;;5036510;28;20236;-88
2021/03/05 03:22:17;;;;;;;17.03;9.13;;;;;;;;;;5036780;28;20180;-88
2021/03/05 03:24:43;;;;;;;17.27;8.70;;;;;;;;;;5035467;28;20234;-88
2021/03/05 03:27:09;;;;;;;14.63;8.73;;;;;;;;;;5036364;28;20215;-88
2021/03/05 03:29:34;;;;;;;11.87;8.40;;;;;;;;;;5036496;28;20180;-88
2021/03/05 03:31:59;;;;;;;12.37;8.37;;;;;;;;;;5036750;28;20169;-89
2021/03/05 03:34:26;;;;;;;15.00;9.93;;;;;;;;;;5036832;28;20259;-89
2021/03/05 03:36:51;;;;;;;12.90;8.40;;;;;;;;;;5036103;28;20735;-89
2021/03/05 03:39:16;;;;;;;13.33;8.73;;;;;;;;;;5036219;28;20311;-89
2021/03/05 03:41:42;;;;;;;15.93;8.13;;;;;;;;;;5035893;28;20226;-89
2021/03/05 03:44:09;;;;;;;10.87;7.23;;;;;;;;;;5035841;28;20223;-89
2021/03/05 03:46:36;;;;;;;12.93;9.13;;;;;;;;;;5036442;28;20208;-88
2021/03/05 03:49:06;;;;;;;13.93;8.00;;;;;;;;;;5036123;28;20258;-88
2021/03/05 03:51:33;;;;;;;11.40;7.63;;;;;;;;;;5035820;28;20620;-88
2021/03/05 03:54:00;;;;;;;15.20;9.53;;;;;;;;;;5035784;28;20172;-88
2021/03/05 03:56:26;;;;;;;16.63;8.67;;;;;;;;;;5036525;28;20180;-88
2021/03/05 03:58:54;;;;;;;15.63;8.97;;;;;;;;;;5036128;28;20200;-88
2021/03/05 04:01:21;;;;;;;15.50;8.97;;;;;;;;;;5035445;28;20224;-87
2021/03/05 04:03:48;;;;;;;17.13;9.87;;;;;;;;;;5036141;28;20180;-87
2021/03/05 04:06:15;;;;;;;14.50;9.90;;;;;;;;;;5035517;28;20683;-88
2021/03/05 04:08:41;;;;;;;14.67;10.10;;;;;;;;;;5051077;28;20176;-88
2021/03/05 04:11:07;;;;;;;16.53;10.83;;;;;;;;;;5035753;28;20184;-87
2021/03/05 04:13:33;;;;;;;17.20;11.37;;;;;;;;;;5036193;28;20204;-87
2021/03/05 04:15:58;;;;;;;14.33;9.87;;;;;;;;;;5034354;28;20216;-88
2021/03/05 04:18:29;;;;;;;17.60;10.07;;;;;;;;;;5035186;28;20260;-88
2021/03/05 04:20:57;;;;;;;17.67;10.33;;;;;;;;;;5034211;28;20181;-88
2021/03/05 04:23:22;;;;;;;16.67;10.30;;;;;;;;;;5034168;28;20620;-88
2021/03/05 04:25:48;;;;;;;16.33;10.70;;;;;;;;;;5035114;28;20184;-88
2021/03/05 04:28:13;;;;;;;18.60;10.83;;;;;;;;;;5035883;28;20178;-88
2021/03/05 04:30:38;;;;;;;16.67;10.43;;;;;;;;;;5035140;28;20171;-88
2021/03/05 04:33:04;;;;;;;17.93;10.37;;;;;;;;;;5035420;28;20264;-88
2021/03/05 04:35:29;;;;;;;16.97;10.73;;;;;;;;;;5034983;28;20199;-88
2021/03/05 04:37:54;;;;;;;15.73;11.50;;;;;;;;;;5034790;28;20190;-88
2021/03/05 04:40:20;;;;;;;18.37;11.97;;;;;;;;;;5035341;28;20204;-88
2021/03/05 04:42:45;;;;;;;16.53;11.07;;;;;;;;;;5034997;28;20168;-87
2021/03/05 04:45:11;;;;;;;17.60;10.57;;;;;;;;;;5035280;28;20184;-88
2021/03/05 04:47:36;;;;;;;16.10;9.97;;;;;;;;;;5034669;28;20184;-88
2021/03/05 04:50:03;;;;;;;15.60;9.87;;;;;;;;;;5035616;28;20212;-88
2021/03/05 04:52:28;;;;;;;15.53;9.93;;;;;;;;;;5035125;28;20172;-88
2021/03/05 04:54:53;;;;;;;20.97;11.57;;;;;;;;;;5034593;28;20276;-88
2021/03/05 04:57:19;;;;;;;22.77;12.20;;;;;;;;;;5035198;28;20172;-88
2021/03/05 04:59:44;;;;;;;26.70;13.50;;;;;;;;;;5034605;28;20197;-88
2021/03/05 05:02:09;;;;;;;24.40;13.40;;;;;;;;;;5034986;28;20228;-87
2021/03/05 05:04:35;;;;;;;23.60;12.83;;;;;;;;;;5034627;28;20558;-88
2021/03/05 05:07:00;;;;;;;19.00;11.30;;;;;;;;;;5034626;28;20192;-87
2021/03/05 05:09:25;;;;;;;20.67;11.47;;;;;;;;;;5034938;28;20195;-87
2021/03/05 05:11:51;;;;;;;17.87;10.67;;;;;;;;;;5034034;28;20218;-87
2021/03/05 05:14:16;;;;;;;16.73;10.87;;;;;;;;;;5034441;28;20176;-88
2021/03/05 05:16:41;;;;;;;13.17;8.97;;;;;;;;;;5034498;28;20175;-88
2021/03/05 05:19:07;;;;;;;14.60;9.63;;;;;;;;;;5034128;28;20251;-88
2021/03/05 05:21:32;;;;;;;15.80;10.43;;;;;;;;;;5034201;28;20172;-88
2021/03/05 05:23:58;;;;;;;16.30;10.80;;;;;;;;;;5034374;28;20172;-88
2021/03/05 05:26:23;;;;;;;28.23;15.67;;;;;;;;;;5033886;28;20179;-89
2021/03/05 05:28:48;;;;;;;17.20;11.50;;;;;;;;;;5034552;28;20172;-88
2021/03/05 05:31:14;;;;;;;17.80;11.83;;;;;;;;;;5034023;28;20187;-88
2021/03/05 05:33:39;;;;;;;23.63;13.43;;;;;;;;;;5034522;28;20638;-88
2021/03/05 05:36:05;;;;;;;15.90;11.03;;;;;;;;;;5034098;28;20189;-88
2021/03/05 05:38:30;;;;;;;17.37;10.00;;;;;;;;;;5034679;28;20176;-89
2021/03/05 05:40:59;;;;;;;15.13;10.20;;;;;;;;;;5034063;28;20172;-90
2021/03/05 05:43:30;;;;;;;14.17;9.07;;;;;;;;;;5034129;28;20172;-90
2021/03/05 05:45:56;;;;;;;14.53;9.40;;;;;;;;;;5034048;28;20159;-89
2021/03/05 05:48:21;;;;;;;15.70;9.13;;;;;;;;;;5033668;28;20204;-89
2021/03/05 05:50:47;;;;;;;23.83;11.80;;;;;;;;;;5033839;28;20227;-89
2021/03/05 05:53:13;;;;;;;25.70;14.30;;;;;;;;;;5033945;28;20173;-89
2021/03/05 05:55:39;;;;;;;23.33;15.03;;;;;;;;;;5034168;28;20218;-89
2021/03/05 05:58:04;;;;;;;24.97;16.47;;;;;;;;;;5034158;28;20196;-89
2021/03/05 06:00:30;;;;;;;21.33;13.17;;;;;;;;;;5034009;28;20655;-89
2021/03/05 06:02:55;;;;;;;18.43;10.80;;;;;;;;;;5034201;28;20370;-89
2021/03/05 06:05:20;;;;;;;16.83;9.90;;;;;;;;;;5033797;28;20172;-89
2021/03/05 06:07:46;;;;;;;17.47;11.87;;;;;;;;;;5033536;28;20177;-89
2021/03/05 06:10:13;;;;;;;19.07;11.60;;;;;;;;;;5033720;28;20508;-89
2021/03/05 06:12:39;;;;;;;16.37;10.53;;;;;;;;;;5034252;28;20173;-89
2021/03/05 06:15:06;;;;;;;12.50;8.43;;;;;;;;;;5033683;28;20621;-88
2021/03/05 06:17:44;;;;;;;14.53;9.67;;;;;;;;;;5033865;28;20168;-88
2021/03/05 06:20:10;;;;;;;14.43;9.50;;;;;;;;;;5033859;28;20250;-88
2021/03/05 06:22:35;;;;;;;17.17;12.43;;;;;;;;;;5034092;28;20177;-88
2021/03/05 06:25:01;;;;;;;12.97;8.83;;;;;;;;;;5037588;28;20527;-88
2021/03/05 06:27:30;;;;;;;14.07;9.20;;;;;;;;;;5037328;28;20303;-88
2021/03/05 06:29:55;;;;;;;15.40;10.37;;;;;;;;;;5036528;28;20533;-88
2021/03/05 06:32:21;;;;;;;19.37;12.80;;;;;;;;;;5037218;28;20198;-88
2021/03/05 06:34:46;;;;;;;24.17;15.00;;;;;;;;;;5037981;28;20187;-88
2021/03/05 06:37:12;;;;;;;33.40;19.73;;;;;;;;;;5037485;28;20238;-88
2021/03/05 06:39:40;;;;;;;29.57;16.13;;;;;;;;;;5036969;28;20200;-87
2021/03/05 06:42:12;;;;;;;16.07;11.67;;;;;;;;;;5037130;28;20492;-88
2021/03/05 06:44:39;;;;;;;15.37;9.63;;;;;;;;;;5035934;28;20173;-87
2021/03/05 06:47:07;;;;;;;14.40;8.30;;;;;;;;;;5037826;28;20219;-87
2021/03/05 06:49:32;;;;;;;15.43;8.40;;;;;;;;;;5037202;28;20239;-88
2021/03/05 06:51:58;;;;;;;13.00;8.17;;;;;;;;;;5036863;28;20175;-88
2021/03/05 06:54:30;;;;;;;13.77;8.10;;;;;;;;;;5037689;28;20242;-88
2021/03/05 06:56:56;;;;;;;11.20;7.60;;;;;;;;;;5038232;28;20957;-88
2021/03/05 06:59:22;;;;;;;15.43;7.97;;;;;;;;;;5056601;28;20199;-89
2021/03/05 07:01:48;;;;;;;12.20;7.47;;;;;;;;;;5056983;28;20235;-88
2021/03/05 07:04:18;;;;;;;15.53;8.40;;;;;;;;;;5056865;28;20168;-88
2021/03/05 07:06:43;;;;;;;13.70;10.27;;;;;;;;;;5056834;28;20202;-88
2021/03/05 07:09:10;;;;;;;13.47;9.40;;;;;;;;;;5056492;28;20618;-89
2021/03/05 07:11:38;;;;;;;12.37;8.10;;;;;;;;;;5056462;28;20167;-89
2021/03/05 07:14:04;;;;;;;15.50;9.17;;;;;;;;;;5056413;28;20660;-88
2021/03/05 07:16:38;;;;;;;11.03;7.20;;;;;;;;;;5056635;28;20203;-88
2021/03/05 07:19:04;;;;;;;11.87;8.00;;;;;;;;;;5056252;28;20207;-89
2021/03/05 07:21:29;;;;;;;16.17;7.77;;;;;;;;;;5056343;28;20669;-89
2021/03/05 07:23:56;;;;;;;15.43;8.60;;;;;;;;;;5056224;28;20177;-88
2021/03/05 07:26:22;;;;;;;12.97;8.53;;;;;;;;;;5056181;28;20293;-88
2021/03/05 07:28:48;;;;;;;14.83;8.80;;;;;;;;;;5056683;28;20273;-88
2021/03/05 07:31:15;;;;;;;12.07;8.27;;;;;;;;;;5056786;28;20656;-88
2021/03/05 07:33:43;;;;;;;13.60;8.93;;;;;;;;;;5055800;28;20298;-89
2021/03/05 07:36:08;;;;;;;18.23;10.27;;;;;;;;;;5056192;28;20192;-88
2021/03/05 07:38:36;;;;;;;12.23;8.47;;;;;;;;;;5056356;28;20171;-88
2021/03/05 07:41:02;;;;;;;17.17;10.93;;;;;;;;;;5056103;28;20179;-89
2021/03/05 07:43:28;;;;;;;11.73;7.90;;;;;;;;;;5049413;28;20585;-89
2021/03/05 07:45:54;;;;;;;14.83;10.17;;;;;;;;;;5046272;28;20233;-89
2021/03/05 07:48:25;;;;;;;20.80;13.27;;;;;;;;;;5046173;28;20179;-89
2021/03/05 07:50:51;;;;;;;19.43;11.77;;;;;;;;;;5052024;28;20589;-88
2021/03/05 07:53:16;;;;;;;16.20;9.57;;;;;;;;;;5055879;28;20168;-88
2021/03/05 07:55:43;;;;;;;15.07;8.80;;;;;;;;;;5055910;28;20202;-88
2021/03/05 07:58:08;;;;;;;17.80;11.10;;;;;;;;;;5051080;28;20177;-88
2021/03/05 08:00:49;;;;;;;20.20;10.87;;;;;;;;;;5043445;28;20284;-87
2021/03/05 08:03:19;;;;;;;20.03;9.93;;;;;;;;;;5041141;28;20188;-88
2021/03/05 08:05:48;;;;;;;20.87;11.37;;;;;;;;;;5040752;28;20222;-88
2021/03/05 08:08:23;;;;;;;19.03;10.87;;;;;;;;;;5055783;28;20222;-88
2021/03/05 08:10:53;;;;;;;15.80;9.90;;;;;;;;;;5055679;28;20530;-88
2021/03/05 08:13:46;;;;;;;18.03;12.03;;;;;;;;;;5056213;28;20207;-88
2021/03/05 08:16:30;;;;;;;14.07;10.63;;;;;;;;;;5055659;28;20160;-88
2021/03/05 08:19:04;;;;;;;14.17;10.53;;;;;;;;;;5048241;28;20211;-88
2021/03/05 08:21:48;;;;;;;14.67;10.70;;;;;;;;;;5052298;28;20175;-88
2021/03/05 08:24:19;;;;;;;30.17;21.27;;;;;;;;;;5055877;28;20255;-88
2021/03/05 08:27:02;;;;;;;18.00;12.90;;;;;;;;;;5055325;28;20172;-88
2021/03/05 08:29:45;;;;;;;17.60;9.33;;;;;;;;;;5055804;28;20620;-90
2021/03/05 08:32:29;;;;;;;15.67;10.40;;;;;;;;;;5054232;28;20538;-90
2021/03/05 08:34:55;;;;;;;16.00;11.30;;;;;;;;;;5054905;28;20331;-89
2021/03/05 08:37:29;;;;;;;13.27;9.27;;;;;;;;;;5054934;28;20313;-89
2021/03/05 08:40:10;;;;;;;13.23;9.50;;;;;;;;;;5054675;28;20619;-87
2021/03/05 08:43:05;;;;;;;13.37;9.73;;;;;;;;;;5046734;28;20227;-89
2021/03/05 08:45:30;;;;;;;14.30;10.00;;;;;;;;;;5031849;28;20191;-87
2021/03/05 08:47:57;;;;;;;13.27;11.27;;;;;;;;;;5054594;28;20178;-88
2021/03/05 08:50:32;;;;;;;15.57;11.57;;;;;;;;;;5054750;28;20171;-89
2021/03/05 08:52:58;;;;;;;15.87;11.87;;;;;;;;;;5053501;28;20190;-87
2021/03/05 08:55:28;;;;;;;11.97;10.57;;;;;;;;;;5054603;28;20168;-89
2021/03/05 08:57:54;;;;;;;14.87;11.60;;;;;;;;;;5054338;28;20227;-89
2021/03/05 09:00:20;;;;;;;13.97;11.50;;;;;;;;;;5054419;28;20573;-89
2021/03/05 09:02:46;;;;;;;15.23;11.63;;;;;;;;;;5054156;28;20164;-90
2021/03/05 09:05:13;;;;;;;18.20;12.73;;;;;;;;;;5054162;28;20184;-89
2021/03/05 09:07:45;;;;;;;15.27;11.30;;;;;;;;;;5053273;28;20247;-89
2021/03/05 09:10:11;;;;;;;12.03;10.73;;;;;;;;;;5052947;28;20186;-90
2021/03/05 09:12:39;;;;;;;16.20;10.87;;;;;;;;;;5045645;28;20195;-89
2021/03/05 09:15:05;;;;;;;14.10;10.63;;;;;;;;;;5032776;28;20230;-89
2021/03/05 09:17:30;;;;;;;10.60;8.90;;;;;;;;;;5034386;28;20624;-89
2021/03/05 09:19:56;;;;;;;14.50;12.00;;;;;;;;;;5034080;28;20236;-88
2021/03/05 09:22:22;;;;;;;11.10;8.23;;;;;;;;;;5033903;28;20203;-89
2021/03/05 09:24:58;;;;;;;12.57;11.23;;;;;;;;;;5034796;28;20622;-89
2021/03/05 09:27:23;;;;;;;17.40;13.93;;;;;;;;;;5033354;28;20183;-87
2021/03/05 09:29:49;;;;;;;15.83;12.10;;;;;;;;;;5034091;28;20565;-88
2021/03/05 09:32:14;;;;;;;33.70;16.23;;;;;;;;;;5033939;28;20248;-88
2021/03/05 09:34:46;;;;;;;21.87;14.53;;;;;;;;;;5051750;28;20639;-89
2021/03/05 09:37:16;;;;;;;26.57;13.93;;;;;;;;;;5053988;28;20261;-88
2021/03/05 09:39:42;;;;;;;15.40;11.10;;;;;;;;;;5053820;28;20589;-88
2021/03/05 09:42:07;;;;;;;37.60;17.00;;;;;;;;;;5053634;28;20232;-87
2021/03/05 09:44:40;;;;;;;16.80;11.27;;;;;;;;;;5053682;28;20164;-88
2021/03/05 09:47:08;;;;;;;21.33;12.57;;;;;;;;;;5054206;28;20180;-89
2021/03/05 09:49:34;;;;;;;29.93;16.10;;;;;;;;;;5053492;28;20566;-88
2021/03/05 09:51:59;;;;;;;24.70;13.03;;;;;;;;;;5053343;28;20172;-87
2021/03/05 09:54:43;;;;;;;22.13;11.40;;;;;;;;;;5053955;28;20168;-88
2021/03/05 09:57:11;;;;;;;14.17;9.67;;;;;;;;;;5053490;28;20175;-86
2021/03/05 09:59:41;;;;;;;10.80;8.23;;;;;;;;;;5053456;28;20207;-86
2021/03/05 10:02:07;;;;;;;8.80;7.30;;;;;;;;;;5053783;28;20555;-87
2021/03/05 10:04:40;;;;;;;10.40;7.70;;;;;;;;;;5052291;28;20184;-87
2021/03/05 10:07:05;;;;;;;11.90;7.90;;;;;;;;;;5052261;28;20187;-86
2021/03/05 10:09:31;;;;;;;12.33;9.17;;;;;;;;;;5053329;28;20176;-86
2021/03/05 10:11:56;;;;;;;10.30;7.80;;;;;;;;;;5053406;28;20180;-86
2021/03/05 10:14:23;;;;;;;11.70;7.27;;;;;;;;;;5052104;28;20180;-85
2021/03/05 10:16:48;;;;;;;11.10;7.87;;;;;;;;;;5053342;28;20178;-85
2021/03/05 10:19:14;;;;;;;11.17;7.23;;;;;;;;;;5052832;28;20199;-85
2021/03/05 10:21:41;;;;;;;158.70;88.40;;;;;;;;;;5052768;28;20194;-86
2021/03/05 10:24:07;;;;;;;39.23;30.47;;;;;;;;;;5052007;28;20180;-86
2021/03/05 10:26:32;;;;;;;16.07;10.70;;;;;;;;;;5052986;28;20589;-88
2021/03/05 10:29:05;;;;;;;9.57;7.87;;;;;;;;;;5053165;28;20278;-86
2021/03/05 10:31:40;;;;;;;9.63;7.20;;;;;;;;;;5053262;28;20614;-85
2021/03/05 10:34:05;;;;;;;8.30;6.80;;;;;;;;;;5053599;28;20172;-85
2021/03/05 10:36:31;;;;;;;9.03;6.00;;;;;;;;;;5052806;28;20322;-84
2021/03/05 10:38:56;;;;;;;7.53;5.60;;;;;;;;;;5051458;28;20223;-85
2021/03/05 10:41:21;;;;;;;7.03;5.60;;;;;;;;;;5053077;28;20255;-84
2021/03/05 10:43:47;;;;;;;10.40;6.13;;;;;;;;;;5053381;28;20168;-85
2021/03/05 10:46:12;;;;;;;5.40;4.43;;;;;;;;;;5052892;28;20545;-85
2021/03/05 10:48:38;;;;;;;5.53;4.77;;;;;;;;;;5052172;28;20592;-85
2021/03/05 10:51:03;;;;;;;7.70;4.87;;;;;;;;;;5052829;28;20627;-85
2021/03/05 10:53:28;;;;;;;3.83;3.37;;;;;;;;;;5053141;28;20167;-84
2021/03/05 10:55:54;;;;;;;5.77;3.97;;;;;;;;;;5053327;28;20164;-85
2021/03/05 10:58:19;;;;;;;8.10;5.10;;;;;;;;;;5052816;28;20518;-85
2021/03/05 11:00:45;;;;;;;12.17;4.90;;;;;;;;;;5051187;28;20285;-87
2021/03/05 11:03:11;;;;;;;9.07;4.57;;;;;;;;;;5052190;28;20687;-87
2021/03/05 11:05:36;;;;;;;8.00;6.33;;;;;;;;;;5052550;28;20275;-87
2021/03/05 11:08:01;;;;;;;8.00;4.10;;;;;;;;;;5052702;28;20164;-87
2021/03/05 11:10:27;;;;;;;3.93;3.30;;;;;;;;;;5055689;28;20264;-87
2021/03/05 11:12:52;;;;;;;7.23;4.40;;;;;;;;;;5056928;28;20180;-87
2021/03/05 11:15:18;;;;;;;8.10;5.90;;;;;;;;;;5055201;28;20325;-87
2021/03/05 11:17:44;;;;;;;9.37;6.00;;;;;;;;;;5056814;28;20172;-87
2021/03/05 11:20:09;;;;;;;10.30;7.50;;;;;;;;;;5056300;28;20207;-87
2021/03/05 11:22:35;;;;;;;8.63;5.90;;;;;;;;;;5056801;28;20302;-87
2021/03/05 11:25:00;;;;;;;6.83;5.40;;;;;;;;;;5055598;28;20174;-87
2021/03/05 11:27:27;;;;;;;3.73;3.23;;;;;;;;;;5056079;28;20530;-87
2021/03/05 11:29:52;;;;;;;9.30;4.20;;;;;;;;;;5056264;28;20168;-87
2021/03/05 11:32:17;;;;;;;4.77;3.90;;;;;;;;;;5056391;28;20171;-87
2021/03/05 11:34:43;;;;;;;10.50;7.77;;;;;;;;;;5056095;28;20178;-87
2021/03/05 11:37:08;;;;;;;7.17;5.47;;;;;;;;;;5055832;28;20545;-87
2021/03/05 11:39:34;;;;;;;9.07;5.27;;;;;;;;;;5056381;28;20257;-87
2021/03/05 11:41:59;;;;;;;11.77;7.50;;;;;;;;;;5055954;28;20180;-87
2021/03/05 11:44:24;;;;;;;27.07;16.10;;;;;;;;;;5054835;28;20180;-87
2021/03/05 11:46:50;;;;;;;19.50;11.47;;;;;;;;;;5056838;28;20175;-87
2021/03/05 11:49:15;;;;;;;15.23;10.33;;;;;;;;;;5056296;28;20532;-87
2021/03/05 11:51:41;;;;;;;14.07;9.43;;;;;;;;;;5055942;28;20168;-86
2021/03/05 11:54:07;;;;;;;12.87;8.83;;;;;;;;;;5055933;28;20187;-85
2021/03/05 11:56:32;;;;;;;12.47;6.53;;;;;;;;;;5055659;28;20625;-85
2021/03/05 11:58:58;;;;;;;9.83;6.00;;;;;;;;;;5055472;28;20205;-86
2021/03/05 12:01:23;;;;;;;8.87;5.80;;;;;;;;;;5055737;28;20220;-87
2021/03/05 12:03:48;;;;;;;15.17;6.97;;;;;;;;;;5053041;28;20176;-87
2021/03/05 12:06:13;;;;;;;18.70;9.83;;;;;;;;;;5055301;28;20249;-86
2021/03/05 12:08:41;;;;;;;8.50;5.47;;;;;;;;;;5055124;28;20214;-86
2021/03/05 12:11:06;;;;;;;13.13;7.00;;;;;;;;;;5053801;28;20183;-86
2021/03/05 12:13:32;;;;;;;14.77;12.00;;;;;;;;;;5053953;28;20183;-86
2021/03/05 12:15:57;;;;;;;12.70;8.37;;;;;;;;;;5055422;28;20283;-86
2021/03/05 12:18:22;;;;;;;9.10;5.10;;;;;;;;;;5055061;28;20172;-87
2021/03/05 12:20:48;;;;;;;8.37;5.70;;;;;;;;;;5055325;28;20661;-86
2021/03/05 12:23:13;;;;;;;8.57;5.27;;;;;;;;;;5055249;28;20172;-87
2021/03/05 12:25:38;;;;;;;12.67;6.07;;;;;;;;;;5055381;28;20171;-87
2021/03/05 12:28:04;;;;;;;10.80;6.90;;;;;;;;;;5055311;28;20168;-87
2021/03/05 12:30:29;;;;;;;12.63;7.93;;;;;;;;;;5054964;28;20172;-87
2021/03/05 12:32:55;;;;;;;17.80;9.87;;;;;;;;;;5055580;28;20262;-87
2021/03/05 12:35:21;;;;;;;12.00;7.60;;;;;;;;;;5054869;28;20548;-87
2021/03/05 12:37:46;;;;;;;17.00;8.93;;;;;;;;;;5055202;28;20302;-87
2021/03/05 12:40:13;;;;;;;6.77;4.03;;;;;;;;;;5054983;28;20199;-87
2021/03/05 12:42:39;;;;;;;6.80;3.77;;;;;;;;;;5054849;28;20203;-87
2021/03/05 12:45:05;;;;;;;8.80;5.80;;;;;;;;;;5054170;28;20285;-87
2021/03/05 12:47:31;;;;;;;5.83;3.80;;;;;;;;;;5055244;28;20263;-86
2021/03/05 12:49:56;;;;;;;8.20;5.53;;;;;;;;;;5054900;28;20215;-86
2021/03/05 12:52:21;;;;;;;11.90;8.40;;;;;;;;;;5054559;28;20615;-85
2021/03/05 12:54:47;;;;;;;7.10;5.03;;;;;;;;;;5054735;28;20171;-87
2021/03/05 12:57:12;;;;;;;10.43;7.43;;;;;;;;;;5054616;28;20168;-87
2021/03/05 12:59:37;;;;;;;11.40;7.30;;;;;;;;;;5053801;28;20200;-85
2021/03/05 13:02:03;;;;;;;11.87;7.47;;;;;;;;;;5051411;28;20714;-85
2021/03/05 13:04:28;;;;;;;9.90;6.77;;;;;;;;;;5051396;28;20648;-87
2021/03/05 13:06:54;;;;;;;23.67;13.20;;;;;;;;;;5052626;28;20167;-86
2021/03/05 13:09:19;;;;;;;12.47;6.47;;;;;;;;;;5052051;28;20184;-86
2021/03/05 13:11:44;;;;;;;10.13;7.47;;;;;;;;;;5051464;28;20534;-86
2021/03/05 13:14:10;;;;;;;6.67;5.07;;;;;;;;;;5048250;28;20576;-86
2021/03/05 13:16:35;;;;;;;11.07;6.77;;;;;;;;;;5032729;28;20284;-86
2021/03/05 13:19:00;;;;;;;7.70;5.03;;;;;;;;;;5032610;28;20235;-86
2021/03/05 13:21:27;;;;;;;6.37;4.40;;;;;;;;;;5032379;28;20602;-86
2021/03/05 13:23:52;;;;;;;9.57;6.30;;;;;;;;;;5031938;28;20177;-86
2021/03/05 13:26:18;;;;;;;62.63;28.13;;;;;;;;;;5031860;28;20314;-85
2021/03/05 13:28:44;;;;;;;14.00;6.50;;;;;;;;;;5032891;28;20183;-86
2021/03/05 13:31:12;;;;;;;6.30;4.93;;;;;;;;;;5032462;28;20164;-86
2021/03/05 13:33:37;;;;;;;45.97;22.40;;;;;;;;;;5032325;28;20192;-87
2021/03/05 13:36:03;;;;;;;31.60;16.30;;;;;;;;;;5030966;28;20211;-87
2021/03/05 13:38:28;;;;;;;48.17;26.63;;;;;;;;;;5032965;28;20532;-87
2021/03/05 13:40:54;;;;;;;24.87;13.80;;;;;;;;;;5032742;28;20211;-87
2021/03/05 13:43:20;;;;;;;6.40;3.70;;;;;;;;;;5034113;28;20171;-87
2021/03/05 13:45:45;;;;;;;3.13;2.83;;;;;;;;;;5033964;28;20517;-85
2021/03/05 13:48:11;;;;;;;4.57;3.50;;;;;;;;;;5033757;28;20168;-87
2021/03/05 13:50:36;;;;;;;6.63;3.57;;;;;;;;;;5033564;28;20512;-86
2021/03/05 13:53:02;;;;;;;6.87;3.50;;;;;;;;;;5033221;28;20165;-87
2021/03/05 13:55:27;;;;;;;13.20;7.70;;;;;;;;;;5033535;28;20650;-87
2021/03/05 13:57:52;;;;;;;7.73;4.67;;;;;;;;;;5032750;28;20260;-87
2021/03/05 14:00:18;;;;;;;14.37;6.33;;;;;;;;;;5034260;28;20274;-87
2021/03/05 14:02:43;;;;;;;4.53;3.53;;;;;;;;;;5033815;28;20172;-87
2021/03/05 14:05:09;;;;;;;5.97;3.73;;;;;;;;;;5033717;28;20161;-87
2021/03/05 14:07:34;;;;;;;8.97;3.77;;;;;;;;;;5033060;28;20184;-87
2021/03/05 14:09:59;;;;;;;5.87;3.80;;;;;;;;;;5032435;28;20184;-87
2021/03/05 14:12:25;;;;;;;7.17;4.93;;;;;;;;;;5033751;28;20513;-87
2021/03/05 14:14:50;;;;;;;9.90;6.60;;;;;;;;;;5032357;28;20529;-87
2021/03/05 14:17:16;;;;;;;10.43;5.70;;;;;;;;;;5032098;28;20179;-87
2021/03/05 14:19:41;;;;;;;6.40;4.60;;;;;;;;;;5032164;28;20206;-87
2021/03/05 14:22:06;;;;;;;9.43;6.10;;;;;;;;;;5031764;28;20653;-87
2021/03/05 14:24:32;;;;;;;6.83;4.63;;;;;;;;;;5031776;28;20169;-86